Terminal Aerodrome Forecast
Issued by NWS

Home | Current Version | Previous Version | Text Only | Print | Product List | Glossary On
Versions: 1 2 3 4 5 6 7 8 9 10 11 12 13 14 15 16 17 18 19 20 21 22 23
000
FTUS45 KBYZ 211733
TAFLVM
TAF
KLVM 211733Z 2118/2218 VRB06KT P6SM VCSH SCT030 OVC040
     FM212000 03010KT P6SM -RA SCT020 OVC035
     FM220000 09011G20KT 6SM -RA SCT015 BKN025 OVC035
     FM220600 09015G28KT 3SM -RA SCT009 BKN015 OVC025=

USA.gov is the U.S. government's official web portal to all federal, state and local government web resources and services.